createdAt,value
2023-04-16T00:00:53.456Z,11.53
2023-04-16T00:03:25.627Z,11.40
2023-04-16T00:05:57.492Z,11.33
2023-04-16T00:08:29.249Z,12.17
2023-04-16T00:11:00.950Z,11.83
2023-04-16T00:13:32.893Z,11.80
2023-04-16T00:16:04.868Z,12.13
2023-04-16T00:18:36.595Z,11.90
2023-04-16T00:21:08.480Z,12.50
2023-04-16T00:23:40.362Z,21.77
2023-04-16T00:26:12.187Z,13.80
2023-04-16T00:28:43.931Z,12.87
2023-04-16T00:31:15.939Z,12.23
2023-04-16T00:33:47.662Z,12.50
2023-04-16T00:36:19.374Z,13.57
2023-04-16T00:38:51.637Z,13.90
2023-04-16T00:41:23.470Z,13.10
2023-04-16T00:43:55.146Z,12.67
2023-04-16T00:46:27.195Z,12.70
2023-04-16T00:49:01.121Z,12.57
2023-04-16T00:51:33.079Z,10.97
2023-04-16T00:54:06.253Z,12.90
2023-04-16T00:56:38.673Z,13.20
2023-04-16T00:59:10.880Z,11.30
2023-04-16T01:01:42.806Z,12.23
2023-04-16T01:04:14.754Z,13.03
2023-04-16T01:06:46.530Z,12.00
2023-04-16T01:09:18.274Z,12.40
2023-04-16T01:11:49.987Z,12.70
2023-04-16T01:14:21.748Z,11.40
2023-04-16T01:16:53.558Z,10.90
2023-04-16T01:19:25.357Z,11.40
2023-04-16T01:21:58.768Z,13.43
2023-04-16T01:24:31.071Z,11.73
2023-04-16T01:27:02.881Z,11.00
2023-04-16T01:29:35.043Z,10.40
2023-04-16T01:32:06.997Z,10.67
2023-04-16T01:34:38.673Z,10.27
2023-04-16T01:37:10.825Z,10.00
2023-04-16T01:39:42.552Z,11.37
2023-04-16T01:42:14.248Z,12.43
2023-04-16T01:44:47.549Z,10.43
2023-04-16T01:47:19.543Z,10.50
2023-04-16T01:49:51.384Z,10.60
2023-04-16T01:52:23.212Z,9.87
2023-04-16T01:54:54.932Z,10.00
2023-04-16T01:57:26.624Z,9.03
2023-04-16T01:59:58.362Z,8.27
2023-04-16T02:02:31.808Z,11.00
2023-04-16T02:05:03.908Z,9.40
2023-04-16T02:07:35.666Z,8.77
2023-04-16T02:10:10.222Z,8.27
2023-04-16T02:12:41.955Z,8.03
2023-04-16T02:15:13.720Z,7.97
2023-04-16T02:17:46.650Z,7.83
2023-04-16T02:20:18.728Z,7.57
2023-04-16T02:22:50.491Z,6.93
2023-04-16T02:25:23.064Z,8.90
2023-04-16T02:27:54.736Z,9.07
2023-04-16T02:30:26.719Z,7.20
2023-04-16T02:32:58.573Z,7.03
2023-04-16T02:35:30.354Z,7.33
2023-04-16T02:38:02.546Z,6.70
2023-04-16T02:40:34.413Z,7.20
2023-04-16T02:43:06.067Z,8.47
2023-04-16T02:45:37.817Z,7.97
2023-04-16T02:48:09.975Z,7.47
2023-04-16T02:50:41.695Z,7.73
2023-04-16T02:53:13.417Z,7.87
2023-04-16T02:55:54.956Z,9.45
2023-04-16T02:58:26.926Z,7.60
2023-04-16T03:00:58.697Z,7.63
2023-04-16T03:03:30.495Z,7.77
2023-04-16T03:06:02.214Z,7.27
2023-04-16T03:08:33.928Z,8.97
2023-04-16T03:11:05.634Z,8.57
2023-04-16T03:13:37.323Z,7.47
2023-04-16T03:16:09.033Z,7.60
2023-04-16T03:18:40.834Z,7.93
2023-04-16T03:21:12.519Z,9.10
2023-04-16T03:23:44.334Z,8.40
2023-04-16T03:26:16.370Z,8.00
2023-04-16T03:28:48.055Z,8.67
2023-04-16T03:31:19.786Z,9.47
2023-04-16T03:33:51.896Z,9.10
2023-04-16T03:36:23.648Z,9.00
2023-04-16T03:38:55.384Z,9.90
2023-04-16T03:41:27.120Z,9.63
2023-04-16T03:43:58.813Z,10.17
2023-04-16T03:46:30.757Z,9.50
2023-04-16T03:49:02.552Z,10.10
2023-04-16T03:51:34.279Z,10.17
2023-04-16T03:54:06.012Z,9.33
2023-04-16T03:56:39.706Z,9.37
2023-04-16T03:59:11.626Z,10.07
2023-04-16T04:01:43.417Z,10.80
2023-04-16T04:04:15.274Z,9.70
2023-04-16T04:06:47.339Z,10.70
2023-04-16T04:09:19.030Z,8.37
2023-04-16T04:11:50.871Z,8.90
2023-04-16T04:14:22.622Z,9.17
2023-04-16T04:16:54.391Z,8.97
2023-04-16T04:19:26.047Z,9.97
2023-04-16T04:21:57.716Z,9.07
2023-04-16T04:24:29.409Z,10.50
2023-04-16T04:27:02.027Z,8.40
2023-04-16T04:29:33.712Z,9.60
2023-04-16T04:32:05.605Z,8.60
2023-04-16T04:34:37.319Z,9.53
2023-04-16T04:37:09.065Z,8.80
2023-04-16T04:39:41.150Z,8.30
2023-04-16T04:42:12.891Z,8.60
2023-04-16T04:44:45.218Z,7.47
2023-04-16T04:47:16.891Z,7.80
2023-04-16T04:49:48.680Z,7.60
2023-04-16T04:52:20.784Z,8.40
2023-04-16T04:54:52.905Z,7.70
2023-04-16T04:57:24.667Z,8.03
2023-04-16T04:59:56.410Z,10.20
2023-04-16T05:02:28.172Z,8.13
2023-04-16T05:05:00.025Z,8.13
2023-04-16T05:07:32.241Z,8.70
2023-04-16T05:10:04.127Z,8.10
2023-04-16T05:12:35.867Z,9.07
2023-04-16T05:15:08.267Z,8.10
2023-04-16T05:17:39.951Z,9.33
2023-04-16T05:20:12.126Z,8.77
2023-04-16T05:22:43.846Z,9.37
2023-04-16T05:25:15.715Z,10.30
2023-04-16T05:27:47.375Z,10.90
2023-04-16T05:30:19.461Z,11.23
2023-04-16T05:32:51.637Z,9.50
2023-04-16T05:35:23.478Z,10.13
2023-04-16T05:37:55.206Z,9.60
2023-04-16T05:40:27.059Z,13.00
2023-04-16T05:42:58.776Z,13.40
2023-04-16T05:45:33.303Z,16.70
2023-04-16T05:48:05.752Z,17.87
2023-04-16T05:50:38.027Z,18.27
2023-04-16T05:53:10.936Z,17.30
2023-04-16T05:55:42.862Z,17.53
2023-04-16T05:58:14.604Z,17.27
2023-04-16T06:00:46.427Z,18.97
2023-04-16T06:03:18.283Z,17.83
2023-04-16T06:05:50.235Z,18.90
2023-04-16T06:08:22.084Z,20.10
2023-04-16T06:10:53.855Z,19.20
2023-04-16T06:13:25.632Z,22.83
2023-04-16T06:15:57.319Z,19.50
2023-04-16T06:18:29.120Z,20.87
2023-04-16T06:21:00.907Z,19.60
2023-04-16T06:23:32.596Z,20.60
2023-04-16T06:26:04.972Z,19.07
2023-04-16T06:28:36.692Z,19.50
2023-04-16T06:31:08.519Z,20.10
2023-04-16T06:33:40.718Z,20.27
2023-04-16T06:36:12.551Z,21.20
2023-04-16T06:38:44.337Z,20.87
2023-04-16T06:41:16.144Z,23.20
2023-04-16T06:43:47.843Z,23.00
2023-04-16T06:46:19.622Z,21.97
2023-04-16T06:48:51.426Z,23.27
2023-04-16T06:51:23.172Z,23.70
2023-04-16T06:53:54.892Z,22.60
2023-04-16T06:56:26.638Z,24.57
2023-04-16T06:58:59.418Z,24.57
2023-04-16T07:01:31.381Z,24.97
2023-04-16T07:04:03.702Z,25.63
2023-04-16T07:06:35.560Z,27.27
2023-04-16T07:09:07.325Z,25.93
2023-04-16T07:11:39.214Z,24.67
2023-04-16T07:14:11.091Z,25.77
2023-04-16T07:16:42.923Z,26.60
2023-04-16T07:19:14.682Z,28.20
2023-04-16T07:21:46.681Z,26.60
2023-04-16T07:24:18.427Z,28.73
2023-04-16T07:26:50.235Z,27.00
2023-04-16T07:29:21.974Z,26.73
2023-04-16T07:31:53.778Z,27.87
2023-04-16T07:34:25.655Z,25.20
2023-04-16T07:36:57.348Z,22.10
2023-04-16T07:39:29.098Z,28.50
2023-04-16T07:42:01.236Z,25.63
2023-04-16T07:44:33.108Z,24.37
2023-04-16T07:47:05.790Z,23.50
2023-04-16T07:49:37.795Z,26.43
2023-04-16T07:52:09.514Z,23.20
2023-04-16T07:54:41.420Z,25.07
2023-04-16T07:57:13.228Z,23.27
2023-04-16T07:59:44.923Z,21.67
2023-04-16T08:02:17.117Z,22.20
2023-04-16T08:04:49.027Z,22.77
2023-04-16T08:07:20.870Z,22.90
2023-04-16T08:09:53.189Z,22.20
2023-04-16T08:12:25.024Z,22.90
2023-04-16T08:14:56.741Z,21.10
2023-04-16T08:17:29.489Z,21.50
2023-04-16T08:20:01.831Z,22.20
2023-04-16T08:22:34.011Z,22.83
2023-04-16T08:25:06.314Z,20.53
2023-04-16T08:27:38.087Z,21.77
2023-04-16T08:30:09.983Z,22.80
2023-04-16T08:32:41.801Z,23.33
2023-04-16T08:35:13.586Z,24.35
2023-04-16T08:37:45.519Z,21.23
2023-04-16T08:40:17.516Z,21.87
2023-04-16T08:42:53.728Z,21.73
2023-04-16T08:45:27.166Z,22.20
2023-04-16T08:47:59.228Z,20.80
2023-04-16T08:50:34.800Z,20.33
2023-04-16T08:53:07.292Z,20.43
2023-04-16T08:55:41.442Z,21.27
2023-04-16T08:58:19.684Z,19.83
2023-04-16T09:00:52.037Z,19.87
2023-04-16T09:03:23.991Z,20.37
2023-04-16T09:05:59.107Z,19.83
2023-04-16T09:08:32.245Z,20.20
2023-04-16T09:11:04.457Z,20.83
2023-04-16T09:13:38.022Z,17.90
2023-04-16T09:16:10.968Z,18.57
2023-04-16T09:18:42.878Z,16.93
2023-04-16T09:21:15.335Z,16.83
2023-04-16T09:23:47.636Z,15.50
2023-04-16T09:26:20.242Z,16.20
2023-04-16T09:28:52.030Z,16.53
2023-04-16T09:31:23.957Z,18.10
2023-04-16T09:34:08.622Z,17.27
2023-04-16T09:36:40.395Z,18.13
2023-04-16T09:39:20.055Z,17.03
2023-04-16T09:41:54.769Z,18.63
2023-04-16T09:44:36.291Z,18.10
2023-04-16T09:47:09.583Z,18.57
2023-04-16T09:49:42.520Z,18.97
2023-04-16T09:52:15.559Z,17.77
2023-04-16T09:54:54.692Z,19.30
2023-04-16T09:57:27.165Z,19.20
2023-04-16T10:00:04.416Z,18.53
2023-04-16T10:02:39.176Z,20.20
2023-04-16T10:05:16.902Z,17.40
2023-04-16T10:07:49.499Z,19.67
2023-04-16T10:10:22.162Z,19.57
2023-04-16T10:12:55.711Z,18.83
2023-04-16T10:15:28.320Z,20.80
2023-04-16T10:18:00.656Z,20.73
2023-04-16T10:20:32.528Z,20.13
2023-04-16T10:23:04.438Z,20.23
2023-04-16T10:25:38.002Z,17.80
2023-04-16T10:28:10.408Z,19.93
2023-04-16T10:30:52.402Z,19.90
2023-04-16T10:33:28.286Z,19.30
2023-04-16T10:36:23.266Z,18.97
2023-04-16T10:38:59.726Z,20.63
2023-04-16T10:41:33.593Z,19.13
2023-04-16T10:44:10.007Z,18.70
2023-04-16T10:46:43.762Z,19.33
2023-04-16T10:49:24.996Z,19.57
2023-04-16T10:52:02.240Z,18.90
2023-04-16T10:54:36.199Z,17.93
2023-04-16T10:57:16.216Z,17.27
2023-04-16T10:59:49.426Z,17.40
2023-04-16T11:02:21.284Z,18.97
2023-04-16T11:04:57.390Z,16.20
2023-04-16T11:07:35.094Z,18.47
2023-04-16T11:10:12.528Z,17.60
2023-04-16T11:12:47.399Z,17.60
2023-04-16T11:15:19.606Z,17.50
2023-04-16T11:17:52.646Z,15.23
2023-04-16T11:20:28.854Z,15.70
2023-04-16T11:23:00.774Z,15.33
2023-04-16T11:25:34.153Z,16.10
2023-04-16T11:28:05.900Z,15.17
2023-04-16T11:30:39.212Z,14.70
2023-04-16T11:33:12.392Z,16.67
2023-04-16T11:35:45.844Z,12.87
2023-04-16T11:38:18.750Z,12.10
2023-04-16T11:40:51.542Z,14.07
2023-04-16T11:43:23.385Z,14.67
2023-04-16T11:45:59.846Z,13.00
2023-04-16T11:48:55.389Z,12.57
2023-04-16T11:51:27.336Z,13.50
2023-04-16T11:53:59.121Z,12.40
2023-04-16T11:56:33.249Z,11.17
2023-04-16T11:59:12.569Z,11.43
2023-04-16T12:01:52.294Z,13.20
2023-04-16T12:04:26.848Z,12.83
2023-04-16T12:07:05.132Z,11.07
2023-04-16T12:09:40.526Z,11.97
2023-04-16T12:12:33.159Z,10.57
2023-04-16T12:15:05.235Z,10.63
2023-04-16T12:17:38.042Z,9.53
2023-04-16T12:20:15.373Z,9.70
2023-04-16T12:22:49.229Z,10.50
2023-04-16T12:25:24.334Z,11.80
2023-04-16T12:27:58.006Z,10.67
2023-04-16T12:30:30.986Z,8.90
2023-04-16T12:33:19.374Z,8.17
2023-04-16T12:35:51.212Z,7.87
2023-04-16T12:38:24.743Z,7.73
2023-04-16T12:40:57.768Z,6.70
2023-04-16T12:43:29.620Z,6.43
2023-04-16T12:46:04.173Z,6.50
2023-04-16T12:48:36.229Z,4.33
2023-04-16T12:51:08.082Z,4.60
2023-04-16T12:53:39.849Z,4.90
2023-04-16T12:56:11.629Z,4.80
2023-04-16T12:58:43.299Z,5.07
2023-04-16T13:01:15.052Z,5.50
2023-04-16T13:03:47.940Z,5.10
2023-04-16T13:06:20.828Z,4.90
2023-04-16T13:08:52.628Z,5.20
2023-04-16T13:11:24.499Z,4.80
2023-04-16T13:13:56.268Z,4.83
2023-04-16T13:16:28.067Z,4.80
2023-04-16T13:18:59.884Z,4.63
2023-04-16T13:21:31.623Z,5.53
2023-04-16T13:24:03.552Z,5.97
2023-04-16T13:26:35.756Z,5.07
2023-04-16T13:29:07.564Z,4.90
2023-04-16T13:31:39.505Z,5.67
2023-04-16T13:34:11.524Z,5.30
2023-04-16T13:36:43.348Z,5.50
2023-04-16T13:39:15.691Z,5.83
2023-04-16T13:41:49.001Z,6.20
2023-04-16T13:44:20.743Z,5.53
2023-04-16T13:46:53.017Z,6.27
2023-04-16T13:49:24.775Z,6.10
2023-04-16T13:51:56.597Z,5.63
2023-04-16T13:54:28.273Z,5.00
2023-04-16T13:57:00.175Z,6.33
2023-04-16T13:59:32.008Z,7.10
2023-04-16T14:02:05.001Z,6.47
2023-04-16T14:04:36.777Z,6.57
2023-04-16T14:07:08.491Z,6.50
2023-04-16T14:09:40.393Z,7.57
2023-04-16T14:12:12.197Z,7.13
2023-04-16T14:14:44.012Z,7.40
2023-04-16T14:17:15.907Z,6.45
2023-04-16T14:19:47.616Z,6.27
2023-04-16T14:22:19.379Z,6.47
2023-04-16T14:24:51.084Z,7.63
2023-04-16T14:27:22.948Z,7.13
2023-04-16T14:29:54.841Z,7.53
2023-04-16T14:32:27.023Z,8.40
2023-04-16T14:34:58.879Z,8.10
2023-04-16T14:37:31.131Z,8.13
2023-04-16T14:40:08.181Z,7.83
2023-04-16T14:42:39.963Z,10.40
2023-04-16T14:45:11.995Z,8.33
2023-04-16T14:47:47.681Z,9.20
2023-04-16T14:50:19.575Z,9.53
2023-04-16T14:52:51.741Z,9.83
2023-04-16T14:55:23.530Z,9.97
2023-04-16T14:57:56.288Z,10.10
2023-04-16T15:00:28.119Z,9.33
2023-04-16T15:03:00.025Z,10.57
2023-04-16T15:05:31.963Z,11.23
2023-04-16T15:08:05.398Z,10.53
2023-04-16T15:10:37.818Z,11.83
2023-04-16T15:13:09.544Z,13.53
2023-04-16T15:15:41.636Z,11.80
2023-04-16T15:18:13.537Z,12.60
2023-04-16T15:20:45.481Z,14.10
2023-04-16T15:23:17.200Z,12.67
2023-04-16T15:25:48.978Z,13.80
2023-04-16T15:28:20.856Z,14.90
2023-04-16T15:30:52.745Z,15.23
2023-04-16T15:33:24.869Z,15.50
2023-04-16T15:35:56.596Z,15.80
2023-04-16T15:38:30.677Z,15.40
2023-04-16T15:41:02.407Z,15.80
2023-04-16T15:43:34.079Z,16.70
2023-04-16T15:46:06.603Z,15.98
2023-04-16T15:48:38.412Z,16.80
2023-04-16T15:51:11.066Z,13.37
2023-04-16T15:53:44.753Z,12.93
2023-04-16T15:56:17.046Z,12.90
2023-04-16T15:58:48.732Z,13.93
2023-04-16T16:01:20.666Z,12.07
2023-04-16T16:03:52.722Z,12.50
2023-04-16T16:06:24.698Z,10.37
2023-04-16T16:08:56.683Z,10.77
2023-04-16T16:11:28.488Z,11.23
2023-04-16T16:14:03.499Z,10.20
2023-04-16T16:16:35.592Z,10.80
2023-04-16T16:19:07.769Z,8.47
2023-04-16T16:21:39.538Z,10.07
2023-04-16T16:24:11.254Z,8.80
2023-04-16T16:26:42.993Z,10.10
2023-04-16T16:29:14.761Z,11.00
2023-04-16T16:31:46.652Z,10.53
2023-04-16T16:34:21.237Z,11.40
2023-04-16T16:36:53.193Z,10.47
2023-04-16T16:39:25.382Z,10.07
2023-04-16T16:42:03.078Z,11.20
2023-04-16T16:44:34.832Z,17.27
2023-04-16T16:47:06.885Z,16.17
2023-04-16T16:49:38.600Z,19.57
2023-04-16T16:52:10.452Z,19.30
2023-04-16T16:54:42.794Z,21.83
2023-04-16T16:57:15.373Z,21.37
2023-04-16T16:59:47.373Z,22.37
2023-04-16T17:02:19.199Z,20.37
2023-04-16T17:04:51.867Z,21.90
2023-04-16T17:07:23.639Z,23.80
2023-04-16T17:09:55.330Z,23.13
2023-04-16T17:12:27.179Z,25.07
2023-04-16T17:14:58.962Z,24.27
2023-04-16T17:17:33.639Z,22.27
2023-04-16T17:20:09.328Z,22.60
2023-04-16T17:22:41.149Z,21.63
2023-04-16T17:25:13.068Z,22.60
2023-04-16T17:27:44.808Z,23.30
2023-04-16T17:30:16.839Z,23.17
2023-04-16T17:32:48.602Z,24.30
2023-04-16T17:35:20.952Z,26.80
2023-04-16T17:37:52.657Z,24.87
2023-04-16T17:40:24.365Z,25.27
2023-04-16T17:42:56.214Z,23.20
2023-04-16T17:45:27.972Z,24.73
2023-04-16T17:47:59.754Z,23.83
2023-04-16T17:50:31.644Z,24.43
2023-04-16T17:53:03.909Z,26.80
2023-04-16T17:55:35.853Z,27.90
2023-04-16T17:58:07.642Z,28.80
2023-04-16T18:00:39.404Z,28.40
2023-04-16T18:03:14.788Z,30.40
2023-04-16T18:05:46.588Z,28.93
2023-04-16T18:08:18.372Z,28.80
2023-04-16T18:10:50.705Z,31.83
2023-04-16T18:13:25.524Z,31.93
2023-04-16T18:15:57.331Z,29.87
2023-04-16T18:18:29.008Z,31.60
2023-04-16T18:21:00.818Z,29.10
2023-04-16T18:23:32.564Z,27.90
2023-04-16T18:26:04.371Z,26.97
2023-04-16T18:28:36.125Z,29.33
2023-04-16T18:31:08.047Z,28.70
2023-04-16T18:33:55.466Z,29.30
2023-04-16T18:36:28.901Z,30.43
2023-04-16T18:39:15.761Z,27.77
2023-04-16T18:41:48.041Z,29.47
2023-04-16T18:44:19.963Z,29.47
2023-04-16T18:46:51.745Z,28.63
2023-04-16T18:49:23.637Z,29.20
2023-04-16T18:51:55.889Z,27.20
2023-04-16T18:54:27.981Z,27.83
2023-04-16T18:57:00.797Z,28.20
2023-04-16T18:59:33.024Z,28.50
2023-04-16T19:02:04.825Z,33.53
2023-04-16T19:04:38.090Z,31.73
2023-04-16T19:07:10.090Z,29.00
2023-04-16T19:09:41.801Z,27.70
2023-04-16T19:12:13.534Z,27.00
2023-04-16T19:14:45.305Z,27.37
2023-04-16T19:17:16.987Z,28.87
2023-04-16T19:19:48.983Z,30.40
2023-04-16T19:22:20.883Z,26.53
2023-04-16T19:24:54.592Z,28.70
2023-04-16T19:27:29.096Z,26.90
2023-04-16T19:30:00.821Z,28.53
2023-04-16T19:32:32.562Z,27.23
2023-04-16T19:35:04.810Z,23.37
2023-04-16T19:37:36.495Z,25.50
2023-04-16T19:40:09.332Z,27.57
2023-04-16T19:42:41.318Z,27.40
2023-04-16T19:45:13.040Z,25.70
2023-04-16T19:47:44.900Z,29.93
2023-04-16T19:50:16.658Z,26.47
2023-04-16T19:52:48.332Z,25.03
2023-04-16T19:55:20.108Z,24.77
2023-04-16T19:57:51.787Z,24.65
2023-04-16T20:00:23.535Z,25.17
2023-04-16T20:02:55.736Z,25.47
2023-04-16T20:05:28.014Z,25.17
2023-04-16T20:07:59.713Z,24.73
2023-04-16T20:10:31.798Z,25.33
2023-04-16T20:13:03.851Z,25.67
2023-04-16T20:15:35.641Z,25.77
2023-04-16T20:18:08.728Z,24.80
2023-04-16T20:20:46.946Z,25.70
2023-04-16T20:23:18.714Z,25.50
2023-04-16T20:25:50.735Z,23.87
2023-04-16T20:28:22.531Z,25.73
2023-04-16T20:30:54.351Z,24.20
2023-04-16T20:33:26.129Z,26.60
2023-04-16T20:35:57.877Z,24.63
2023-04-16T20:38:32.385Z,25.47
2023-04-16T20:41:10.339Z,25.40
2023-04-16T20:43:42.963Z,26.27
2023-04-16T20:46:14.719Z,29.00
2023-04-16T20:48:46.550Z,26.90
2023-04-16T20:51:18.276Z,28.60
2023-04-16T20:53:52.138Z,27.40
2023-04-16T20:56:23.922Z,28.70
2023-04-16T20:58:55.889Z,25.90
2023-04-16T21:01:27.733Z,24.93
2023-04-16T21:03:59.720Z,25.10
2023-04-16T21:06:32.994Z,26.40
2023-04-16T21:09:06.016Z,25.83
2023-04-16T21:11:38.206Z,25.53
2023-04-16T21:14:09.885Z,25.10
2023-04-16T21:16:41.600Z,26.97
2023-04-16T21:19:13.511Z,25.50
2023-04-16T21:21:45.475Z,26.23
2023-04-16T21:24:17.186Z,24.97
2023-04-16T21:26:48.940Z,24.60
2023-04-16T21:29:20.678Z,25.40
2023-04-16T21:31:52.479Z,24.53
2023-04-16T21:34:24.524Z,24.83
2023-04-16T21:36:56.219Z,24.47
2023-04-16T21:39:30.812Z,23.90
2023-04-16T21:42:02.606Z,22.60
2023-04-16T21:44:34.285Z,21.27
2023-04-16T21:47:06.200Z,22.60
2023-04-16T21:49:37.927Z,23.40
2023-04-16T21:52:18.337Z,21.52
2023-04-16T21:54:50.904Z,21.33
2023-04-16T21:57:22.674Z,21.87
2023-04-16T21:59:54.422Z,19.20
2023-04-16T22:02:26.337Z,19.67
2023-04-16T22:04:58.125Z,19.13
2023-04-16T22:07:30.506Z,21.17
2023-04-16T22:10:03.022Z,21.40
2023-04-16T22:12:37.826Z,22.20
2023-04-16T22:15:10.458Z,21.07
2023-04-16T22:17:42.308Z,23.27
2023-04-16T22:20:14.736Z,22.63
2023-04-16T22:22:46.533Z,21.60
2023-04-16T22:25:18.306Z,24.13
2023-04-16T22:27:50.215Z,24.67
2023-04-16T22:30:23.200Z,27.10
2023-04-16T22:32:57.355Z,25.23
2023-04-16T22:35:34.328Z,23.77
2023-04-16T22:38:06.440Z,24.27
2023-04-16T22:40:40.825Z,25.53
2023-04-16T22:43:12.630Z,24.20
2023-04-16T22:45:46.629Z,23.90
2023-04-16T22:48:20.390Z,26.10
2023-04-16T22:50:52.284Z,27.70
2023-04-16T22:53:30.941Z,26.30
2023-04-16T22:56:02.927Z,26.40
2023-04-16T22:58:34.769Z,26.07
2023-04-16T23:01:14.738Z,23.63
2023-04-16T23:03:54.565Z,24.20
2023-04-16T23:06:27.338Z,25.63
2023-04-16T23:08:59.089Z,26.53
2023-04-16T23:11:30.854Z,26.80
2023-04-16T23:14:04.076Z,23.30
2023-04-16T23:16:39.477Z,26.83
2023-04-16T23:19:14.834Z,26.63
2023-04-16T23:21:46.544Z,26.70
2023-04-16T23:24:19.242Z,25.30
2023-04-16T23:26:52.446Z,25.80
2023-04-16T23:29:27.898Z,24.40
2023-04-16T23:31:59.636Z,24.90
2023-04-16T23:34:31.415Z,25.93
2023-04-16T23:37:03.125Z,25.43
2023-04-16T23:39:34.834Z,25.33
2023-04-16T23:42:06.675Z,24.93
2023-04-16T23:44:38.545Z,24.43
2023-04-16T23:47:10.409Z,26.07
2023-04-16T23:49:42.159Z,24.77
2023-04-16T23:52:13.848Z,25.70
2023-04-16T23:54:45.635Z,23.43
2023-04-16T23:57:17.408Z,27.23
2023-04-16T23:59:49.137Z,24.40
